sensor_id;sensor_type;location;lat;lon;timestamp;pressure;altitude;pressure_sealevel;temperature;humidity
80945;BME280;70400;50.934;11.590;2024-03-02T00:00:10;99065.63;;;5.17;90.83
80945;BME280;70400;50.934;11.590;2024-03-02T00:01:04;99066.19;;;5.21;91.07
80945;BME280;70400;50.934;11.590;2024-03-02T00:01:55;99067.84;;;5.22;90.45
80945;BME280;70400;50.934;11.590;2024-03-02T00:02:47;99063.44;;;5.22;90.58
80945;BME280;70400;50.934;11.590;2024-03-02T00:03:38;99063.13;;;5.16;90.37
80945;BME280;70400;50.934;11.590;2024-03-02T00:04:30;99061.50;;;5.15;90.60
80945;BME280;70400;50.934;11.590;2024-03-02T00:05:22;99062.03;;;5.18;90.54
80945;BME280;70400;50.934;11.590;2024-03-02T00:06:13;99060.41;;;5.17;90.89
80945;BME280;70400;50.934;11.590;2024-03-02T00:07:04;99064.66;;;5.18;90.51
80945;BME280;70400;50.934;11.590;2024-03-02T00:07:56;99064.22;;;5.13;90.72
80945;BME280;70400;50.934;11.590;2024-03-02T00:08:47;99063.13;;;5.16;91.03
80945;BME280;70400;50.934;11.590;2024-03-02T00:09:38;99061.19;;;5.08;90.64
80945;BME280;70400;50.934;11.590;2024-03-02T00:10:40;99064.88;;;5.06;90.75
80945;BME280;70400;50.934;11.590;2024-03-02T00:11:34;99062.97;;;5.08;90.64
80945;BME280;70400;50.934;11.590;2024-03-02T00:12:27;99059.69;;;5.15;90.33
80945;BME280;70400;50.934;11.590;2024-03-02T00:13:20;99056.13;;;5.16;90.44
80945;BME280;70400;50.934;11.590;2024-03-02T00:14:13;99061.75;;;5.12;90.63
80945;BME280;70400;50.934;11.590;2024-03-02T00:15:47;99054.41;;;5.06;90.27
80945;BME280;70400;50.934;11.590;2024-03-02T00:16:37;99056.97;;;5.17;90.44
80945;BME280;70400;50.934;11.590;2024-03-02T00:17:29;99054.03;;;5.10;90.39
80945;BME280;70400;50.934;11.590;2024-03-02T00:18:24;99053.06;;;5.11;90.39
80945;BME280;70400;50.934;11.590;2024-03-02T00:19:15;99055.41;;;5.05;90.41
80945;BME280;70400;50.934;11.590;2024-03-02T00:20:09;99053.16;;;5.00;90.76
80945;BME280;70400;50.934;11.590;2024-03-02T00:21:00;99054.81;;;5.01;90.66
80945;BME280;70400;50.934;11.590;2024-03-02T00:21:53;99053.91;;;5.12;90.78
80945;BME280;70400;50.934;11.590;2024-03-02T00:22:44;99058.44;;;5.10;90.64
80945;BME280;70400;50.934;11.590;2024-03-02T00:23:38;99056.97;;;5.17;90.65
80945;BME280;70400;50.934;11.590;2024-03-02T00:24:34;99047.84;;;5.11;90.84
80945;BME280;70400;50.934;11.590;2024-03-02T00:25:25;99049.63;;;5.11;90.61
80945;BME280;70400;50.934;11.590;2024-03-02T00:26:16;99056.34;;;5.04;90.46
80945;BME280;70400;50.934;11.590;2024-03-02T00:27:07;99051.44;;;5.10;90.87
80945;BME280;70400;50.934;11.590;2024-03-02T00:28:02;99051.00;;;5.05;90.60
80945;BME280;70400;50.934;11.590;2024-03-02T00:28:55;99047.56;;;5.05;90.36
80945;BME280;70400;50.934;11.590;2024-03-02T00:29:47;99051.53;;;4.99;90.71
80945;BME280;70400;50.934;11.590;2024-03-02T00:30:50;99046.16;;;5.00;90.85
80945;BME280;70400;50.934;11.590;2024-03-02T00:31:42;99049.91;;;5.08;90.99
80945;BME280;70400;50.934;11.590;2024-03-02T00:32:34;99048.81;;;5.10;90.41
80945;BME280;70400;50.934;11.590;2024-03-02T00:33:36;99047.59;;;5.14;90.30
80945;BME280;70400;50.934;11.590;2024-03-02T00:34:28;99050.72;;;5.08;90.34
80945;BME280;70400;50.934;11.590;2024-03-02T00:35:19;99051.69;;;5.07;90.66
80945;BME280;70400;50.934;11.590;2024-03-02T00:36:31;99050.56;;;5.00;90.02
80945;BME280;70400;50.934;11.590;2024-03-02T00:37:22;99050.13;;;4.95;90.73
80945;BME280;70400;50.934;11.590;2024-03-02T00:38:14;99048.06;;;4.98;90.90
80945;BME280;70400;50.934;11.590;2024-03-02T00:39:08;99043.63;;;4.89;90.50
80945;BME280;70400;50.934;11.590;2024-03-02T00:40:01;99043.38;;;4.92;91.39
80945;BME280;70400;50.934;11.590;2024-03-02T00:40:52;99048.91;;;4.99;91.17
80945;BME280;70400;50.934;11.590;2024-03-02T00:41:43;99041.19;;;4.97;91.08
80945;BME280;70400;50.934;11.590;2024-03-02T00:42:34;99041.91;;;4.99;90.87
80945;BME280;70400;50.934;11.590;2024-03-02T00:44:38;99039.28;;;4.99;90.86
80945;BME280;70400;50.934;11.590;2024-03-02T00:45:28;99044.63;;;4.98;90.77
80945;BME280;70400;50.934;11.590;2024-03-02T00:46:20;99047.38;;;4.96;91.17
80945;BME280;70400;50.934;11.590;2024-03-02T00:47:11;99044.91;;;4.95;91.10
80945;BME280;70400;50.934;11.590;2024-03-02T00:48:02;99043.81;;;4.97;91.27
80945;BME280;70400;50.934;11.590;2024-03-02T00:48:57;99041.47;;;4.94;90.92
80945;BME280;70400;50.934;11.590;2024-03-02T00:49:48;99044.63;;;4.98;91.07
80945;BME280;70400;50.934;11.590;2024-03-02T00:50:39;99042.16;;;4.96;90.65
80945;BME280;70400;50.934;11.590;2024-03-02T00:51:32;99051.66;;;4.97;91.27
80945;BME280;70400;50.934;11.590;2024-03-02T00:52:24;99048.06;;;4.98;90.81
80945;BME280;70400;50.934;11.590;2024-03-02T00:53:14;99044.06;;;4.94;90.86
80945;BME280;70400;50.934;11.590;2024-03-02T00:54:08;99047.34;;;4.87;90.94
80945;BME280;70400;50.934;11.590;2024-03-02T00:54:59;99041.56;;;4.93;90.85
80945;BME280;70400;50.934;11.590;2024-03-02T00:55:50;99046.69;;;4.94;91.03
80945;BME280;70400;50.934;11.590;2024-03-02T00:56:41;99047.63;;;4.93;90.99
80945;BME280;70400;50.934;11.590;2024-03-02T00:57:34;99042.41;;;4.93;90.47
80945;BME280;70400;50.934;11.590;2024-03-02T00:58:25;99042.56;;;4.92;91.12
80945;BME280;70400;50.934;11.590;2024-03-02T00:59:16;99044.72;;;4.87;90.94
80945;BME280;70400;50.934;11.590;2024-03-02T01:00:08;99042.22;;;4.85;91.10
80945;BME280;70400;50.934;11.590;2024-03-02T01:01:02;99042.38;;;4.84;90.99
80945;BME280;70400;50.934;11.590;2024-03-02T01:01:53;99043.19;;;4.84;91.22
80945;BME280;70400;50.934;11.590;2024-03-02T01:02:44;99038.53;;;4.88;91.05
80945;BME280;70400;50.934;11.590;2024-03-02T01:03:37;99043.06;;;4.86;90.92
80945;BME280;70400;50.934;11.590;2024-03-02T01:04:28;99044.56;;;4.88;90.97
80945;BME280;70400;50.934;11.590;2024-03-02T01:05:19;99036.19;;;4.85;90.86
80945;BME280;70400;50.934;11.590;2024-03-02T01:06:10;99043.25;;;4.94;90.67
80945;BME280;70400;50.934;11.590;2024-03-02T01:07:01;99041.56;;;4.93;90.90
80945;BME280;70400;50.934;11.590;2024-03-02T01:07:51;99040.06;;;4.90;90.63
80945;BME280;70400;50.934;11.590;2024-03-02T01:08:43;99034.53;;;4.84;90.74
80945;BME280;70400;50.934;11.590;2024-03-02T01:09:34;99044.56;;;4.88;90.77
80945;BME280;70400;50.934;11.590;2024-03-02T01:10:25;99049.56;;;4.91;90.64
80945;BME280;70400;50.934;11.590;2024-03-02T01:11:19;99042.13;;;4.87;90.56
80945;BME280;70400;50.934;11.590;2024-03-02T01:12:13;99046.94;;;4.91;90.65
80945;BME280;70400;50.934;11.590;2024-03-02T01:13:04;99048.97;;;4.88;90.52
80945;BME280;70400;50.934;11.590;2024-03-02T01:13:55;99040.97;;;4.79;90.90
80945;BME280;70400;50.934;11.590;2024-03-02T01:14:46;99042.50;;;4.82;90.84
80945;BME280;70400;50.934;11.590;2024-03-02T01:15:37;99039.63;;;4.85;90.93
80945;BME280;70400;50.934;11.590;2024-03-02T01:16:28;99042.06;;;4.77;90.60
80945;BME280;70400;50.934;11.590;2024-03-02T01:17:19;99045.38;;;4.79;91.01
80945;BME280;70400;50.934;11.590;2024-03-02T01:18:10;99039.19;;;4.80;90.66
80945;BME280;70400;50.934;11.590;2024-03-02T01:19:00;99037.81;;;4.76;90.78
80945;BME280;70400;50.934;11.590;2024-03-02T01:19:52;99038.75;;;4.75;91.12
80945;BME280;70400;50.934;11.590;2024-03-02T01:20:42;99041.78;;;4.80;90.91
80945;BME280;70400;50.934;11.590;2024-03-02T01:21:34;99045.50;;;4.77;90.78
80945;BME280;70400;50.934;11.590;2024-03-02T01:22:24;99042.88;;;4.77;91.26
80945;BME280;70400;50.934;11.590;2024-03-02T01:23:16;99040.53;;;4.74;90.99
80945;BME280;70400;50.934;11.590;2024-03-02T01:24:07;99048.47;;;4.73;91.13
80945;BME280;70400;50.934;11.590;2024-03-02T01:24:58;99041.50;;;4.73;91.26
80945;BME280;70400;50.934;11.590;2024-03-02T01:25:49;99042.44;;;4.72;91.54
80945;BME280;70400;50.934;11.590;2024-03-02T01:26:40;99040.53;;;4.74;91.40
80945;BME280;70400;50.934;11.590;2024-03-02T01:27:31;99044.22;;;4.72;91.20
80945;BME280;70400;50.934;11.590;2024-03-02T01:28:21;99039.00;;;4.72;91.34
80945;BME280;70400;50.934;11.590;2024-03-02T01:29:12;99050.44;;;4.71;91.63
80945;BME280;70400;50.934;11.590;2024-03-02T01:30:04;99042.59;;;4.71;91.38
80945;BME280;70400;50.934;11.590;2024-03-02T01:30:55;99052.34;;;4.69;91.42
80945;BME280;70400;50.934;11.590;2024-03-02T01:31:46;99045.44;;;4.68;91.98
80945;BME280;70400;50.934;11.590;2024-03-02T01:32:38;99047.81;;;4.71;91.66
80945;BME280;70400;50.934;11.590;2024-03-02T01:33:29;99042.69;;;4.69;91.57
80945;BME280;70400;50.934;11.590;2024-03-02T01:34:20;99053.25;;;4.68;91.51
80945;BME280;70400;50.934;11.590;2024-03-02T01:35:13;99054.22;;;4.67;91.18
80945;BME280;70400;50.934;11.590;2024-03-02T01:36:05;99051.63;;;4.67;91.26
80945;BME280;70400;50.934;11.590;2024-03-02T01:36:56;99050.66;;;4.68;91.27
80945;BME280;70400;50.934;11.590;2024-03-02T01:37:47;99045.59;;;4.66;91.34
80945;BME280;70400;50.934;11.590;2024-03-02T01:38:38;99050.66;;;4.68;91.13
80945;BME280;70400;50.934;11.590;2024-03-02T01:39:29;99046.66;;;4.64;91.41
80945;BME280;70400;50.934;11.590;2024-03-02T01:40:20;99051.50;;;4.68;90.82
80945;BME280;70400;50.934;11.590;2024-03-02T01:41:11;99050.91;;;4.65;91.36
80945;BME280;70400;50.934;11.590;2024-03-02T01:42:02;99048.91;;;4.68;91.18
80945;BME280;70400;50.934;11.590;2024-03-02T01:42:53;99047.47;;;4.64;91.11
80945;BME280;70400;50.934;11.590;2024-03-02T01:43:47;99052.44;;;4.67;91.12
80945;BME280;70400;50.934;11.590;2024-03-02T01:44:39;99051.63;;;4.67;91.26
80945;BME280;70400;50.934;11.590;2024-03-02T01:45:31;99052.44;;;4.67;91.44
80945;BME280;70400;50.934;11.590;2024-03-02T01:46:22;99046.50;;;4.65;91.35
80945;BME280;70400;50.934;11.590;2024-03-02T01:47:13;99048.19;;;4.66;91.39
80945;BME280;70400;50.934;11.590;2024-03-02T01:48:06;99047.59;;;4.63;91.26
80945;BME280;70400;50.934;11.590;2024-03-02T01:48:57;99049.78;;;4.57;91.38
80945;BME280;70400;50.934;11.590;2024-03-02T01:49:48;99047.41;;;4.54;91.77
80945;BME280;70400;50.934;11.590;2024-03-02T01:50:40;99045.53;;;4.56;91.70
80945;BME280;70400;50.934;11.590;2024-03-02T01:51:31;99051.44;;;4.59;92.00
80945;BME280;70400;50.934;11.590;2024-03-02T01:52:22;99043.88;;;4.55;91.93
80945;BME280;70400;50.934;11.590;2024-03-02T01:53:13;99046.59;;;4.54;92.02
80945;BME280;70400;50.934;11.590;2024-03-02T01:54:04;99049.22;;;4.54;91.96
80945;BME280;70400;50.934;11.590;2024-03-02T01:54:55;99047.75;;;4.61;91.89
80945;BME280;70400;50.934;11.590;2024-03-02T01:55:46;99048.56;;;4.62;92.06
80945;BME280;70400;50.934;11.590;2024-03-02T01:56:37;99049.28;;;4.64;91.67
80945;BME280;70400;50.934;11.590;2024-03-02T01:57:28;99050.22;;;4.63;91.59
80945;BME280;70400;50.934;11.590;2024-03-02T01:58:19;99048.19;;;4.66;91.89
80945;BME280;70400;50.934;11.590;2024-03-02T01:59:10;99049.00;;;4.67;91.53
80945;BME280;70400;50.934;11.590;2024-03-02T02:00:04;99051.19;;;4.62;91.62
80945;BME280;70400;50.934;11.590;2024-03-02T02:01:01;99049.78;;;4.57;92.11
80945;BME280;70400;50.934;11.590;2024-03-02T02:01:52;99051.19;;;4.62;91.75
80945;BME280;70400;50.934;11.590;2024-03-02T02:02:44;99045.97;;;4.62;91.80
80945;BME280;70400;50.934;11.590;2024-03-02T02:03:34;99044.44;;;4.59;91.92
80945;BME280;70400;50.934;11.590;2024-03-02T02:04:25;99046.66;;;4.64;92.00
80945;BME280;70400;50.934;11.590;2024-03-02T02:05:18;99045.97;;;4.62;92.20
80945;BME280;70400;50.934;11.590;2024-03-02T02:06:09;99047.47;;;4.64;91.91
80945;BME280;70400;50.934;11.590;2024-03-02T02:07:00;99046.03;;;4.71;91.56
80945;BME280;70400;50.934;11.590;2024-03-02T02:07:51;99040.78;;;4.71;91.52
80945;BME280;70400;50.934;11.590;2024-03-02T02:08:42;99041.88;;;4.69;91.40
80945;BME280;70400;50.934;11.590;2024-03-02T02:09:32;99045.63;;;4.76;91.33
80945;BME280;70400;50.934;11.590;2024-03-02T02:10:24;99050.66;;;4.68;91.36
80945;BME280;70400;50.934;11.590;2024-03-02T02:11:15;99048.38;;;4.74;91.41
80945;BME280;70400;50.934;11.590;2024-03-02T02:12:07;99050.97;;;4.74;91.01
80945;BME280;70400;50.934;11.590;2024-03-02T02:12:58;99051.34;;;4.70;91.09
80945;BME280;70400;50.934;11.590;2024-03-02T02:13:49;99059.34;;;4.68;91.07
80945;BME280;70400;50.934;11.590;2024-03-02T02:14:47;99047.59;;;4.63;91.05
80945;BME280;70400;50.934;11.590;2024-03-02T02:15:38;99052.44;;;4.67;91.05
80945;BME280;70400;50.934;11.590;2024-03-02T02:16:28;99052.59;;;4.66;91.41
80945;BME280;70400;50.934;11.590;2024-03-02T02:17:20;99055.22;;;4.66;91.26
80945;BME280;70400;50.934;11.590;2024-03-02T02:18:11;99054.94;;;4.69;90.98
80945;BME280;70400;50.934;11.590;2024-03-02T02:19:02;99053.53;;;4.65;91.31
80945;BME280;70400;50.934;11.590;2024-03-02T02:19:53;99060.44;;;4.66;91.11
80945;BME280;70400;50.934;11.590;2024-03-02T02:20:44;99054.75;;;4.61;91.18
80945;BME280;70400;50.934;11.590;2024-03-02T02:21:35;99053.47;;;4.55;91.32
80945;BME280;70400;50.934;11.590;2024-03-02T02:22:26;99057.81;;;4.66;91.28
80945;BME280;70400;50.934;11.590;2024-03-02T02:23:17;99054.50;;;4.64;91.59
80945;BME280;70400;50.934;11.590;2024-03-02T02:24:08;99060.16;;;4.69;91.15
80945;BME280;70400;50.934;11.590;2024-03-02T02:24:59;99054.78;;;4.70;91.15
80945;BME280;70400;50.934;11.590;2024-03-02T02:25:50;99060.44;;;4.66;90.99
80945;BME280;70400;50.934;11.590;2024-03-02T02:26:41;99056.03;;;4.66;90.98
80945;BME280;70400;50.934;11.590;2024-03-02T02:27:32;99052.97;;;4.61;91.31
80945;BME280;70400;50.934;11.590;2024-03-02T02:28:23;99058.56;;;4.56;92.02
80945;BME280;70400;50.934;11.590;2024-03-02T02:29:14;99054.75;;;4.61;91.27
80945;BME280;70400;50.934;11.590;2024-03-02T02:30:05;99060.22;;;4.57;91.61
80945;BME280;70400;50.934;11.590;2024-03-02T02:30:56;99064.63;;;4.57;91.60
80945;BME280;70400;50.934;11.590;2024-03-02T02:31:47;99064.63;;;4.57;91.70
80945;BME280;70400;50.934;11.590;2024-03-02T02:32:38;99066.41;;;4.56;91.77
80945;BME280;70400;50.934;11.590;2024-03-02T02:33:29;99061.44;;;4.53;91.70
80945;BME280;70400;50.934;11.590;2024-03-02T02:34:20;99057.03;;;4.54;91.68
80945;BME280;70400;50.934;11.590;2024-03-02T02:35:11;99058.13;;;4.51;91.80
80945;BME280;70400;50.934;11.590;2024-03-02T02:36:03;99057.31;;;4.51;91.78
80945;BME280;70400;50.934;11.590;2024-03-02T02:36:54;99058.44;;;4.58;91.74
80945;BME280;70400;50.934;11.590;2024-03-02T02:37:47;99067.84;;;4.49;91.81
80945;BME280;70400;50.934;11.590;2024-03-02T02:38:40;99066.53;;;4.55;91.84
80945;BME280;70400;50.934;11.590;2024-03-02T02:39:33;99065.59;;;4.56;91.82
80945;BME280;70400;50.934;11.590;2024-03-02T02:40:24;99061.56;;;4.52;91.71
80945;BME280;70400;50.934;11.590;2024-03-02T02:41:15;99067.22;;;4.57;91.73
80945;BME280;70400;50.934;11.590;2024-03-02T02:42:06;99077.81;;;4.55;91.49
80945;BME280;70400;50.934;11.590;2024-03-02T02:42:58;99071.63;;;4.56;91.83
80945;BME280;70400;50.934;11.590;2024-03-02T02:43:52;99077.47;;;4.49;91.72
80945;BME280;70400;50.934;11.590;2024-03-02T02:44:43;99073.09;;;4.49;91.87
80945;BME280;70400;50.934;11.590;2024-03-02T02:45:34;99077.81;;;4.55;91.66
80945;BME280;70400;50.934;11.590;2024-03-02T02:46:25;99079.09;;;4.61;91.73
80945;BME280;70400;50.934;11.590;2024-03-02T02:47:16;99081.44;;;4.64;91.57
80945;BME280;70400;50.934;11.590;2024-03-02T02:48:07;99072.63;;;4.65;90.90
80945;BME280;70400;50.934;11.590;2024-03-02T02:48:58;99074.78;;;4.60;91.21
80945;BME280;70400;50.934;11.590;2024-03-02T02:49:49;99078.13;;;4.62;90.77
80945;BME280;70400;50.934;11.590;2024-03-02T02:50:41;99075.66;;;4.61;90.91
80945;BME280;70400;50.934;11.590;2024-03-02T02:51:32;99072.19;;;4.60;91.33
80945;BME280;70400;50.934;11.590;2024-03-02T02:52:23;99072.25;;;4.70;91.24
80945;BME280;70400;50.934;11.590;2024-03-02T02:53:14;99068.69;;;4.71;90.93
80945;BME280;70400;50.934;11.590;2024-03-02T02:54:05;99075.84;;;4.69;90.73
80945;BME280;70400;50.934;11.590;2024-03-02T02:54:56;99071.44;;;4.69;90.63
80945;BME280;70400;50.934;11.590;2024-03-02T02:55:47;99064.41;;;4.70;90.77
80945;BME280;70400;50.934;11.590;2024-03-02T02:56:38;99068.56;;;4.72;90.90
80945;BME280;70400;50.934;11.590;2024-03-02T02:57:29;99067.56;;;4.64;91.10
80945;BME280;70400;50.934;11.590;2024-03-02T02:58:22;99061.50;;;4.63;91.16
80945;BME280;70400;50.934;11.590;2024-03-02T02:59:13;99063.53;;;4.60;91.16
80945;BME280;70400;50.934;11.590;2024-03-02T03:00:09;99067.03;;;4.70;91.50
80945;BME280;70400;50.934;11.590;2024-03-02T03:01:08;99069.47;;;4.62;91.28
80945;BME280;70400;50.934;11.590;2024-03-02T03:01:59;99069.19;;;4.65;91.43
80945;BME280;70400;50.934;11.590;2024-03-02T03:02:50;99060.44;;;4.66;91.29
80945;BME280;70400;50.934;11.590;2024-03-02T03:03:41;99064.56;;;4.68;91.80
80945;BME280;70400;50.934;11.590;2024-03-02T03:04:32;99059.91;;;4.72;91.42
80945;BME280;70400;50.934;11.590;2024-03-02T03:05:23;99067.63;;;4.73;91.83
80945;BME280;70400;50.934;11.590;2024-03-02T03:06:14;99065.00;;;4.73;91.41
80945;BME280;70400;50.934;11.590;2024-03-02T03:07:05;99058.81;;;4.74;91.82
80945;BME280;70400;50.934;11.590;2024-03-02T03:07:55;99062.13;;;4.76;91.95
80945;BME280;70400;50.934;11.590;2024-03-02T03:08:47;99059.38;;;4.78;91.81
80945;BME280;70400;50.934;11.590;2024-03-02T03:09:38;99063.41;;;4.82;91.32
80945;BME280;70400;50.934;11.590;2024-03-02T03:10:31;99059.56;;;4.86;91.47
80945;BME280;70400;50.934;11.590;2024-03-02T03:11:24;99058.59;;;4.87;91.54
80945;BME280;70400;50.934;11.590;2024-03-02T03:12:17;99057.78;;;4.87;91.27
80945;BME280;70400;50.934;11.590;2024-03-02T03:13:08;99058.88;;;4.84;91.66
80945;BME280;70400;50.934;11.590;2024-03-02T03:13:59;99054.84;;;4.80;91.95
80945;BME280;70400;50.934;11.590;2024-03-02T03:14:52;99054.59;;;4.83;92.02
80945;BME280;70400;50.934;11.590;2024-03-02T03:15:42;99061.03;;;4.79;92.32
80945;BME280;70400;50.934;11.590;2024-03-02T03:16:33;99055.66;;;4.81;92.27
80945;BME280;70400;50.934;11.590;2024-03-02T03:17:24;99056.66;;;4.79;92.63
80945;BME280;70400;50.934;11.590;2024-03-02T03:18:15;99058.44;;;4.79;92.93
80945;BME280;70400;50.934;11.590;2024-03-02T03:19:06;99059.97;;;4.82;92.58
80945;BME280;70400;50.934;11.590;2024-03-02T03:19:57;99065.75;;;4.85;92.75
80945;BME280;70400;50.934;11.590;2024-03-02T03:20:48;99055.03;;;4.88;92.83
80945;BME280;70400;50.934;11.590;2024-03-02T03:21:39;99065.25;;;4.91;92.82
80945;BME280;70400;50.934;11.590;2024-03-02T03:22:30;99064.53;;;4.89;92.52
80945;BME280;70400;50.934;11.590;2024-03-02T03:23:25;99060.94;;;4.90;92.67
80945;BME280;70400;50.934;11.590;2024-03-02T03:24:16;99066.88;;;4.92;92.56
80945;BME280;70400;50.934;11.590;2024-03-02T03:25:07;99065.47;;;4.88;92.56
80945;BME280;70400;50.934;11.590;2024-03-02T03:26:02;99063.44;;;4.92;92.81
80945;BME280;70400;50.934;11.590;2024-03-02T03:26:53;99064.53;;;4.89;92.81
80945;BME280;70400;50.934;11.590;2024-03-02T03:27:44;99065.75;;;4.85;93.18
80945;BME280;70400;50.934;11.590;2024-03-02T03:28:36;99065.88;;;4.84;93.22
80945;BME280;70400;50.934;11.590;2024-03-02T03:29:27;99065.03;;;4.83;93.24
80945;BME280;70400;50.934;11.590;2024-03-02T03:30:18;99065.47;;;4.88;92.88
80945;BME280;70400;50.934;11.590;2024-03-02T03:31:09;99062.63;;;4.91;93.18
80945;BME280;70400;50.934;11.590;2024-03-02T03:32:01;99057.78;;;4.87;93.11
80945;BME280;70400;50.934;11.590;2024-03-02T03:32:52;99063.31;;;4.93;93.10
80945;BME280;70400;50.934;11.590;2024-03-02T03:33:43;99062.63;;;4.91;93.29
80945;BME280;70400;50.934;11.590;2024-03-02T03:34:34;99067.00;;;4.91;93.19
80945;BME280;70400;50.934;11.590;2024-03-02T03:35:26;99064.53;;;4.89;93.61
80945;BME280;70400;50.934;11.590;2024-03-02T03:36:16;99058.59;;;4.87;94.00
80945;BME280;70400;50.934;11.590;2024-03-02T03:37:07;99059.69;;;4.85;93.62
80945;BME280;70400;50.934;11.590;2024-03-02T03:37:59;99062.88;;;4.88;93.98
80945;BME280;70400;50.934;11.590;2024-03-02T03:38:49;99060.41;;;4.87;93.55
80945;BME280;70400;50.934;11.590;2024-03-02T03:39:40;99059.69;;;4.85;94.00
80945;BME280;70400;50.934;11.590;2024-03-02T03:40:31;99066.44;;;4.87;94.13
80945;BME280;70400;50.934;11.590;2024-03-02T03:41:22;99054.78;;;4.91;93.88
80945;BME280;70400;50.934;11.590;2024-03-02T03:42:13;99056.56;;;4.91;93.85
80945;BME280;70400;50.934;11.590;2024-03-02T03:43:04;99060.69;;;4.93;94.07
80945;BME280;70400;50.934;11.590;2024-03-02T03:43:55;99051.22;;;4.92;93.85
80945;BME280;70400;50.934;11.590;2024-03-02T03:44:46;99052.41;;;4.88;93.97
80945;BME280;70400;50.934;11.590;2024-03-02T03:45:37;99046.50;;;4.86;94.24
80945;BME280;70400;50.934;11.590;2024-03-02T03:46:27;99050.66;;;4.89;94.18
80945;BME280;70400;50.934;11.590;2024-03-02T03:47:18;99047.06;;;4.90;94.16
80945;BME280;70400;50.934;11.590;2024-03-02T03:48:10;99054.09;;;4.89;94.03
80945;BME280;70400;50.934;11.590;2024-03-02T03:49:01;99051.47;;;4.89;94.35
80945;BME280;70400;50.934;11.590;2024-03-02T03:49:52;99048.88;;;4.89;94.52
80945;BME280;70400;50.934;11.590;2024-03-02T03:50:43;99048.97;;;4.88;94.60
80945;BME280;70400;50.934;11.590;2024-03-02T03:51:34;99054.09;;;4.89;94.65
80945;BME280;70400;50.934;11.590;2024-03-02T03:52:25;99045.53;;;4.87;94.22
80945;BME280;70400;50.934;11.590;2024-03-02T03:53:15;99048.72;;;4.91;94.52
80945;BME280;70400;50.934;11.590;2024-03-02T03:54:07;99045.28;;;4.90;94.52
80945;BME280;70400;50.934;11.590;2024-03-02T03:54:57;99051.22;;;4.92;94.71
80945;BME280;70400;50.934;11.590;2024-03-02T03:55:48;99046.81;;;4.93;94.73
80945;BME280;70400;50.934;11.590;2024-03-02T03:56:42;99045.97;;;4.92;94.45
80945;BME280;70400;50.934;11.590;2024-03-02T03:57:33;99048.59;;;4.92;94.58
80945;BME280;70400;50.934;11.590;2024-03-02T03:58:24;99049.56;;;4.91;94.45
80945;BME280;70400;50.934;11.590;2024-03-02T03:59:14;99051.91;;;4.94;94.97
80945;BME280;70400;50.934;11.590;2024-03-02T04:00:06;99045.88;;;4.94;94.73
80945;BME280;70400;50.934;11.590;2024-03-02T04:01:03;99048.59;;;4.92;94.72
80945;BME280;70400;50.934;11.590;2024-03-02T04:01:54;99056.56;;;4.91;95.01
80945;BME280;70400;50.934;11.590;2024-03-02T04:02:45;99053.13;;;4.90;94.93
80945;BME280;70400;50.934;11.590;2024-03-02T04:03:38;99052.03;;;4.93;94.89
80945;BME280;70400;50.934;11.590;2024-03-02T04:04:29;99056.44;;;4.92;95.07
80945;BME280;70400;50.934;11.590;2024-03-02T04:05:20;99050.69;;;4.98;94.64
80945;BME280;70400;50.934;11.590;2024-03-02T04:06:10;99054.25;;;4.97;94.90
80945;BME280;70400;50.934;11.590;2024-03-02T04:07:02;99050.25;;;4.93;94.91
80945;BME280;70400;50.934;11.590;2024-03-02T04:07:53;99054.53;;;4.94;94.92
80945;BME280;70400;50.934;11.590;2024-03-02T04:08:43;99058.06;;;4.93;94.73
80945;BME280;70400;50.934;11.590;2024-03-02T04:09:35;99057.25;;;4.93;94.54
80945;BME280;70400;50.934;11.590;2024-03-02T04:10:25;99055.22;;;4.96;95.15
80945;BME280;70400;50.934;11.590;2024-03-02T04:11:16;99053.44;;;4.97;94.46
80945;BME280;70400;50.934;11.590;2024-03-02T04:12:08;99049.03;;;4.97;94.58
80945;BME280;70400;50.934;11.590;2024-03-02T04:12:59;99052.63;;;4.96;94.50
80945;BME280;70400;50.934;11.590;2024-03-02T04:13:50;99053.44;;;4.97;94.49
80945;BME280;70400;50.934;11.590;2024-03-02T04:14:40;99051.22;;;4.92;94.25
80945;BME280;70400;50.934;11.590;2024-03-02T04:15:33;99058.06;;;4.93;94.44
80945;BME280;70400;50.934;11.590;2024-03-02T04:16:24;99053.56;;;4.95;94.23
80945;BME280;70400;50.934;11.590;2024-03-02T04:17:15;99055.03;;;4.88;94.25
80945;BME280;70400;50.934;11.590;2024-03-02T04:18:06;99056.69;;;4.89;94.03
80945;BME280;70400;50.934;11.590;2024-03-02T04:18:57;99056.81;;;4.88;93.95
80945;BME280;70400;50.934;11.590;2024-03-02T04:19:48;99063.13;;;4.85;93.98
80945;BME280;70400;50.934;11.590;2024-03-02T04:20:39;99055.56;;;4.82;94.03
80945;BME280;70400;50.934;11.590;2024-03-02T04:21:30;99057.34;;;4.82;94.08
80945;BME280;70400;50.934;11.590;2024-03-02T04:22:21;99059.38;;;4.78;94.56
80945;BME280;70400;50.934;11.590;2024-03-02T04:23:15;99067.09;;;4.79;94.12
80945;BME280;70400;50.934;11.590;2024-03-02T04:24:06;99064.84;;;4.75;94.44
80945;BME280;70400;50.934;11.590;2024-03-02T04:24:57;99067.34;;;4.76;94.41
80945;BME280;70400;50.934;11.590;2024-03-02T04:25:48;99070.25;;;4.83;94.63
80945;BME280;70400;50.934;11.590;2024-03-02T04:26:39;99062.41;;;4.83;94.08
80945;BME280;70400;50.934;11.590;2024-03-02T04:27:31;99063.72;;;4.89;94.25
80945;BME280;70400;50.934;11.590;2024-03-02T04:28:23;99068.88;;;4.79;94.29
80945;BME280;70400;50.934;11.590;2024-03-02T04:29:14;99064.59;;;4.78;94.53
80945;BME280;70400;50.934;11.590;2024-03-02T04:30:06;99070.66;;;4.78;94.56
80945;BME280;70400;50.934;11.590;2024-03-02T04:30:57;99068.63;;;4.82;94.77
80945;BME280;70400;50.934;11.590;2024-03-02T04:31:48;99064.75;;;4.76;94.61
80945;BME280;70400;50.934;11.590;2024-03-02T04:32:39;99069.59;;;4.81;94.87
80945;BME280;70400;50.934;11.590;2024-03-02T04:33:30;99077.81;;;4.76;94.46
80945;BME280;70400;50.934;11.590;2024-03-02T04:34:21;99071.88;;;4.74;94.02
80945;BME280;70400;50.934;11.590;2024-03-02T04:35:12;99076.66;;;4.69;94.28